Time;durP1;ratioP1;P1;durP2;ratioP2;P2;SDS_P1;SDS_P2;PMS_P1;PMS_P2;Temp;Humidity;BMP_temperature;BMP_pressure;BME280_temperature;BME280_humidity;BME280_pressure;Samples;Min_cycle;Max_cycle;Signal;HPM_P1;HPM_P2
2021/01/03 00:01:56;;;;;;;27.83;13.10;;;0.00;99.90;;;;;;5021652;28;20465;-66
2021/01/03 00:04:22;;;;;;;28.77;12.50;;;0.00;99.90;;;;;;5024064;28;20472;-61
2021/01/03 00:06:52;;;;;;;26.37;13.40;;;0.00;99.90;;;;;;5024532;28;20466;-62
2021/01/03 00:09:19;;;;;;;26.03;13.37;;;0.00;99.90;;;;;;5025033;28;20443;-62
2021/01/03 00:11:45;;;;;;;30.70;13.30;;;0.00;99.90;;;;;;5022358;28;21033;-61
2021/01/03 00:14:10;;;;;;;29.43;14.23;;;0.00;99.90;;;;;;5021797;28;20432;-63
2021/01/03 00:16:37;;;;;;;32.10;14.90;;;0.00;99.90;;;;;;5021750;28;20286;-61
2021/01/03 00:19:04;;;;;;;26.70;12.63;;;0.00;99.90;;;;;;5020694;28;20456;-62
2021/01/03 00:21:30;;;;;;;31.97;14.17;;;0.00;99.90;;;;;;5025496;28;20463;-62
2021/01/03 00:23:56;;;;;;;29.50;13.23;;;-0.10;99.90;;;;;;5021398;28;20945;-62
2021/01/03 00:26:21;;;;;;;25.87;12.13;;;-0.10;99.90;;;;;;5022444;28;20671;-61
2021/01/03 00:28:47;;;;;;;28.10;13.33;;;0.00;99.90;;;;;;5015348;28;20182;-62
2021/01/03 00:31:13;;;;;;;26.17;11.90;;;-0.10;99.90;;;;;;5023876;28;20786;-62
2021/01/03 00:33:39;;;;;;;27.27;13.03;;;-0.10;99.90;;;;;;5021462;28;20454;-60
2021/01/03 00:36:05;;;;;;;23.70;11.73;;;-0.10;99.90;;;;;;5004452;28;20208;-63
2021/01/03 00:38:32;;;;;;;27.03;12.93;;;-0.10;99.90;;;;;;5023889;28;20228;-62
2021/01/03 00:40:58;;;;;;;24.67;12.17;;;-0.10;99.90;;;;;;5005221;28;20460;-64
2021/01/03 00:43:25;;;;;;;30.50;12.27;;;-0.10;99.90;;;;;;5024932;28;20432;-62
2021/01/03 00:45:52;;;;;;;21.93;11.73;;;-0.10;99.90;;;;;;5021150;28;20455;-62
2021/01/03 00:48:18;;;;;;;22.60;11.77;;;-0.10;99.90;;;;;;5022613;28;20519;-61
2021/01/03 00:50:44;;;;;;;31.70;13.43;;;-0.10;99.90;;;;;;5020054;28;20472;-63
2021/01/03 00:53:09;;;;;;;27.93;14.03;;;-0.10;99.90;;;;;;5025252;28;20236;-63
2021/01/03 00:55:35;;;;;;;30.53;12.97;;;0.00;99.90;;;;;;5027320;28;20464;-63
2021/01/03 00:58:01;;;;;;;29.20;12.70;;;0.00;99.90;;;;;;5023771;28;20251;-62
2021/01/03 01:00:29;;;;;;;24.53;12.57;;;-0.10;99.90;;;;;;5023866;28;20224;-59
2021/01/03 01:02:55;;;;;;;30.47;13.00;;;-0.10;99.90;;;;;;5016385;28;20205;-62
2021/01/03 01:05:21;;;;;;;28.13;13.00;;;-0.10;99.90;;;;;;5023366;28;20427;-62
2021/01/03 01:07:48;;;;;;;29.10;12.27;;;-0.10;99.90;;;;;;5032599;28;20427;-62
2021/01/03 01:10:21;;;;;;;27.50;13.63;;;-0.10;99.90;;;;;;5039718;28;20538;-63
2021/01/03 01:12:51;;;;;;;29.53;11.63;;;-0.10;99.90;;;;;;5038130;28;20847;-62
2021/01/03 01:15:19;;;;;;;26.37;14.03;;;-0.10;99.90;;;;;;5026467;28;21395;-61
2021/01/03 01:17:50;;;;;;;27.90;13.60;;;-0.10;99.90;;;;;;5029035;28;20442;-61
2021/01/03 01:20:17;;;;;;;29.40;13.30;;;-0.20;99.90;;;;;;5023150;28;20470;-62
2021/01/03 01:22:44;;;;;;;29.17;13.70;;;-0.20;99.90;;;;;;5023116;28;20436;-63
2021/01/03 01:25:11;;;;;;;27.87;13.43;;;-0.30;99.90;;;;;;5024891;28;20427;-60
2021/01/03 01:27:36;;;;;;;33.23;15.17;;;-0.30;99.90;;;;;;5023160;28;20438;-63
2021/01/03 01:30:08;;;;;;;27.00;13.37;;;-0.30;99.90;;;;;;5024480;28;20488;-62
2021/01/03 01:32:34;;;;;;;27.40;12.03;;;-0.30;99.90;;;;;;5024267;28;20442;-64
2021/01/03 01:35:00;;;;;;;25.53;12.90;;;-0.30;99.90;;;;;;5027678;28;20506;-63
2021/01/03 01:37:26;;;;;;;27.07;13.50;;;-0.30;99.90;;;;;;5025266;28;20713;-62
2021/01/03 01:39:52;;;;;;;33.93;14.43;;;-0.30;99.90;;;;;;5026576;28;20200;-64
2021/01/03 01:42:19;;;;;;;29.40;13.13;;;-0.30;99.90;;;;;;5026686;28;20501;-62
2021/01/03 01:44:45;;;;;;;27.57;14.00;;;-0.30;99.90;;;;;;5024049;28;20271;-60
2021/01/03 01:47:32;;;;;;;34.93;14.57;;;-0.30;99.90;;;;;;5018106;28;20518;-63
2021/01/03 01:50:00;;;;;;;30.93;14.37;;;-0.30;99.90;;;;;;5026880;28;21248;-60
2021/01/03 01:52:33;;;;;;;30.07;13.50;;;-0.30;99.90;;;;;;5023315;28;20434;-61
2021/01/03 01:55:04;;;;;;;33.03;14.40;;;-0.20;99.90;;;;;;5030338;28;21007;-62
2021/01/03 01:57:34;;;;;;;30.17;14.83;;;-0.30;99.90;;;;;;5030003;28;20459;-63
2021/01/03 02:00:12;;;;;;;29.30;14.03;;;-0.30;99.90;;;;;;5030617;28;20452;-61
2021/01/03 02:02:37;;;;;;;29.57;13.47;;;-0.30;99.90;;;;;;5023563;28;20794;-60
2021/01/03 02:05:26;;;;;;;29.93;13.77;;;-0.30;99.90;;;;;;5031260;28;20437;-60
2021/01/03 02:08:13;;;;;;;30.60;13.77;;;-0.30;99.90;;;;;;5025312;28;20208;-61
2021/01/03 02:10:43;;;;;;;28.97;13.33;;;-0.30;99.90;;;;;;5032039;28;20942;-64
2021/01/03 02:13:26;;;;;;;34.23;14.13;;;-0.30;99.90;;;;;;5037623;28;20443;-64
2021/01/03 02:15:58;;;;;;;30.93;14.80;;;-0.40;99.90;;;;;;5021775;28;20466;-60
2021/01/03 02:18:24;;;;;;;31.60;15.50;;;-0.40;99.90;;;;;;5021879;28;20432;-61
2021/01/03 02:20:58;;;;;;;31.50;14.70;;;-0.40;99.90;;;;;;5028308;28;20468;-62
2021/01/03 02:23:44;;;;;;;31.47;13.10;;;-0.30;99.90;;;;;;5030751;28;20438;-61
2021/01/03 02:26:13;;;;;;;31.30;13.57;;;-0.30;99.90;;;;;;5025660;28;20430;-61
2021/01/03 02:28:43;;;;;;;28.70;12.80;;;-0.40;99.90;;;;;;5046290;28;20433;-61
2021/01/03 02:31:15;;;;;;;28.10;12.40;;;-0.40;99.90;;;;;;5030458;28;20453;-61
2021/01/03 02:33:44;;;;;;;24.40;12.27;;;-0.40;99.90;;;;;;5023410;28;20440;-61
2021/01/03 02:36:25;;;;;;;33.17;13.13;;;-0.40;99.90;;;;;;5026547;28;20462;-61
2021/01/03 02:39:03;;;;;;;21.77;10.80;;;-0.30;99.90;;;;;;5031404;28;20420;-61
2021/01/03 02:41:30;;;;;;;25.23;12.50;;;-0.40;99.90;;;;;;5025478;28;20448;-62
2021/01/03 02:43:55;;;;;;;29.40;13.77;;;-0.40;99.90;;;;;;5030927;28;20421;-64
2021/01/03 02:46:21;;;;;;;28.60;13.87;;;-0.40;99.90;;;;;;5029879;28;20511;-61
2021/01/03 02:48:47;;;;;;;29.63;13.03;;;-0.40;99.90;;;;;;5030515;28;20181;-64
2021/01/03 02:51:13;;;;;;;28.73;13.67;;;-0.40;99.90;;;;;;5030151;28;20467;-61
2021/01/03 02:53:38;;;;;;;35.53;12.97;;;-0.30;99.90;;;;;;5028526;28;20647;-63
2021/01/03 02:56:05;;;;;;;28.20;14.10;;;-0.30;99.90;;;;;;5040377;28;20202;-62
2021/01/03 02:58:31;;;;;;;31.87;14.03;;;-0.30;99.90;;;;;;5022427;28;20448;-60
2021/01/03 03:00:57;;;;;;;32.27;14.43;;;-0.30;99.90;;;;;;5032365;28;20472;-60
2021/01/03 03:03:23;;;;;;;30.77;14.97;;;-0.30;99.90;;;;;;5027905;28;20181;-61
2021/01/03 03:05:49;;;;;;;33.43;15.27;;;-0.30;99.90;;;;;;5040762;28;20433;-60
2021/01/03 03:08:17;;;;;;;29.30;13.47;;;-0.30;99.90;;;;;;5035888;28;20477;-61
2021/01/03 03:10:43;;;;;;;31.60;15.37;;;-0.30;99.90;;;;;;5031350;28;20215;-61
2021/01/03 03:13:09;;;;;;;29.17;13.10;;;-0.30;99.90;;;;;;5031205;28;20448;-61
2021/01/03 03:15:35;;;;;;;25.93;13.00;;;-0.30;99.90;;;;;;5025791;28;20879;-62
2021/01/03 03:18:02;;;;;;;24.77;13.00;;;-0.30;99.90;;;;;;5029254;28;20193;-63
2021/01/03 03:20:28;;;;;;;27.33;12.23;;;-0.30;99.90;;;;;;5049202;28;20282;-60
2021/01/03 03:22:54;;;;;;;31.63;12.97;;;-0.30;99.90;;;;;;5029500;28;20527;-61
2021/01/03 03:25:21;;;;;;;27.50;12.63;;;-0.20;99.90;;;;;;5038708;28;20431;-65
2021/01/03 03:27:47;;;;;;;27.83;13.73;;;-0.30;99.90;;;;;;5045403;28;20801;-62
2021/01/03 03:30:16;;;;;;;31.47;13.90;;;-0.20;99.90;;;;;;5022895;28;20453;-63
2021/01/03 03:32:42;;;;;;;29.50;13.77;;;-0.20;99.90;;;;;;5024046;28;20177;-61
2021/01/03 03:35:09;;;;;;;27.50;12.67;;;-0.20;99.90;;;;;;5045406;28;20440;-61
2021/01/03 03:37:34;;;;;;;29.50;12.83;;;-0.20;99.90;;;;;;5037945;28;20186;-64
2021/01/03 03:40:00;;;;;;;24.10;12.30;;;-0.20;99.90;;;;;;5023112;28;20572;-60
2021/01/03 03:42:28;;;;;;;26.67;12.53;;;-0.30;99.90;;;;;;5029908;28;20184;-62
2021/01/03 03:44:54;;;;;;;28.00;13.10;;;-0.30;99.90;;;;;;5040107;28;20177;-61
2021/01/03 03:47:20;;;;;;;27.47;12.53;;;-0.30;99.90;;;;;;5035780;28;20440;-63
2021/01/03 03:49:46;;;;;;;27.67;12.93;;;-0.20;99.90;;;;;;5024042;28;20495;-60
2021/01/03 03:52:11;;;;;;;24.67;12.83;;;-0.30;99.90;;;;;;5028703;28;20185;-61
2021/01/03 03:54:37;;;;;;;26.40;12.80;;;-0.30;99.90;;;;;;5034564;28;20190;-62
2021/01/03 03:57:08;;;;;;;30.87;13.83;;;-0.30;99.90;;;;;;5034528;28;20339;-61
2021/01/03 03:59:33;;;;;;;28.00;12.63;;;-0.30;99.90;;;;;;5031728;28;20176;-61
2021/01/03 04:01:59;;;;;;;21.50;11.30;;;-0.30;99.90;;;;;;5035462;28;20445;-64
2021/01/03 04:04:25;;;;;;;22.97;11.70;;;-0.30;99.90;;;;;;5023602;28;20178;-60
2021/01/03 04:06:52;;;;;;;26.30;11.70;;;-0.30;99.90;;;;;;5029195;28;20197;-61
2021/01/03 04:09:18;;;;;;;18.77;11.30;;;-0.30;99.90;;;;;;5038323;28;20436;-61
2021/01/03 04:11:47;;;;;;;24.90;11.67;;;-0.30;99.90;;;;;;5030709;28;20459;-60
2021/01/03 04:14:14;;;;;;;22.53;11.10;;;-0.30;99.90;;;;;;5021879;28;20438;-60
2021/01/03 04:16:47;;;;;;;24.53;11.57;;;-0.30;99.90;;;;;;5040191;28;20463;-60
2021/01/03 04:19:13;;;;;;;20.20;9.80;;;-0.30;99.90;;;;;;5045990;28;21037;-60
2021/01/03 04:21:41;;;;;;;20.93;9.97;;;-0.20;99.90;;;;;;5027756;28;20886;-61
2021/01/03 04:24:07;;;;;;;28.43;11.67;;;-0.30;99.90;;;;;;5014818;28;20445;-61
2021/01/03 04:26:33;;;;;;;24.93;10.40;;;-0.20;99.90;;;;;;5024162;28;20428;-60
2021/01/03 04:28:59;;;;;;;22.23;10.30;;;-0.30;99.90;;;;;;5028896;28;20455;-61
2021/01/03 04:31:25;;;;;;;23.20;11.10;;;-0.30;99.90;;;;;;5026714;28;21037;-61
2021/01/03 04:33:50;;;;;;;24.23;11.00;;;-0.30;99.90;;;;;;5014545;28;20257;-60
2021/01/03 04:36:18;;;;;;;23.40;12.40;;;-0.30;99.90;;;;;;5026335;28;20696;-61
2021/01/03 04:38:45;;;;;;;21.13;11.73;;;-0.30;99.90;;;;;;5024211;28;20192;-62
2021/01/03 04:41:34;;;;;;;21.70;10.80;;;-0.30;99.90;;;;;;5027048;28;20459;-62
2021/01/03 04:44:04;;;;;;;24.37;10.97;;;-0.20;99.90;;;;;;5034016;28;20909;-61
2021/01/03 04:46:37;;;;;;;31.30;12.30;;;-0.20;99.90;;;;;;5046980;28;20423;-60
2021/01/03 04:49:07;;;;;;;28.20;12.57;;;-0.20;99.90;;;;;;5026838;28;20427;-64
2021/01/03 04:52:03;;;;;;;21.87;11.60;;;-0.20;99.90;;;;;;5028563;28;20486;-61
2021/01/03 04:54:33;;;;;;;24.90;11.90;;;-0.20;99.90;;;;;;5039009;28;21218;-62
2021/01/03 04:57:01;;;;;;;23.73;10.27;;;-0.20;99.90;;;;;;5033208;28;20450;-59
2021/01/03 04:59:45;;;;;;;25.60;12.50;;;-0.20;99.90;;;;;;5023614;28;20431;-60
2021/01/03 05:02:29;;;;;;;28.60;12.53;;;-0.20;99.90;;;;;;5027105;23;20547;-60
2021/01/03 05:05:22;;;;;;;24.27;11.40;;;-0.20;99.90;;;;;;5001312;28;20423;-60
2021/01/03 05:08:17;;;;;;;23.03;12.30;;;-0.20;99.90;;;;;;4999698;28;20427;-61
2021/01/03 05:10:44;;;;;;;28.63;12.20;;;-0.20;99.90;;;;;;4998597;28;20466;-60
2021/01/03 05:13:47;;;;;;;27.03;12.80;;;-0.20;99.90;;;;;;5006908;28;20489;-60
2021/01/03 05:16:17;;;;;;;26.73;12.60;;;-0.20;99.90;;;;;;5007189;28;21005;-60
2021/01/03 05:18:43;;;;;;;27.70;13.27;;;-0.20;99.90;;;;;;5008987;28;20524;-60
2021/01/03 05:21:10;;;;;;;30.80;13.80;;;-0.20;99.90;;;;;;5005681;28;20463;-60
2021/01/03 05:23:38;;;;;;;30.83;13.57;;;-0.20;99.90;;;;;;5005381;28;20433;-60
2021/01/03 05:26:25;;;;;;;31.00;13.73;;;-0.20;99.90;;;;;;5001352;28;20477;-60
2021/01/03 05:28:54;;;;;;;29.33;13.80;;;-0.20;99.90;;;;;;5017992;28;20417;-61
2021/01/03 05:31:21;;;;;;;32.93;14.70;;;-0.20;99.90;;;;;;5010345;28;20453;-60
2021/01/03 05:34:02;;;;;;;30.70;13.67;;;-0.20;99.90;;;;;;5006996;28;20850;-60
2021/01/03 05:36:36;;;;;;;33.27;14.70;;;-0.20;99.90;;;;;;5011691;28;20462;-58
2021/01/03 05:39:10;;;;;;;28.67;13.10;;;-0.20;99.90;;;;;;5003585;28;20428;-62
2021/01/03 05:41:45;;;;;;;36.10;14.13;;;-0.20;99.90;;;;;;5003942;28;20534;-60
2021/01/03 05:44:21;;;;;;;32.73;14.13;;;-0.20;99.90;;;;;;5007692;28;20432;-60
2021/01/03 05:46:51;;;;;;;27.40;13.60;;;-0.20;99.90;;;;;;5000241;28;20971;-59
2021/01/03 05:49:28;;;;;;;33.57;15.40;;;-0.20;99.90;;;;;;5001769;28;20532;-60
2021/01/03 05:52:29;;;;;;;28.93;13.63;;;-0.20;99.90;;;;;;5003054;28;20482;-61
2021/01/03 05:55:01;;;;;;;28.47;13.80;;;-0.20;99.90;;;;;;5003748;28;20436;-60
2021/01/03 05:57:33;;;;;;;29.93;13.80;;;-0.20;99.90;;;;;;5016761;28;20484;-61
2021/01/03 06:00:13;;;;;;;31.03;14.40;;;-0.20;99.90;;;;;;5005692;28;20438;-60
2021/01/03 06:02:39;;;;;;;29.53;14.07;;;-0.10;99.90;;;;;;5006875;28;20479;-61
2021/01/03 06:05:09;;;;;;;30.70;14.43;;;-0.20;99.90;;;;;;5009652;28;20433;-61
2021/01/03 06:07:35;;;;;;;31.30;14.70;;;-0.10;99.90;;;;;;5001442;28;20211;-60
2021/01/03 06:10:22;;;;;;;35.27;15.00;;;-0.10;99.90;;;;;;5018970;28;20524;-60
2021/01/03 06:12:57;;;;;;;31.03;14.23;;;-0.10;99.90;;;;;;5008916;28;20457;-61
2021/01/03 06:15:23;;;;;;;26.20;12.93;;;-0.10;99.90;;;;;;5007362;28;20638;-59
2021/01/03 06:17:51;;;;;;;34.10;14.90;;;-0.10;99.90;;;;;;5008512;28;20448;-61
2021/01/03 06:20:23;;;;;;;32.80;14.33;;;-0.10;99.90;;;;;;5011138;28;20440;-59
2021/01/03 06:22:49;;;;;;;31.47;13.90;;;-0.10;99.90;;;;;;5006386;28;20466;-61
2021/01/03 06:25:27;;;;;;;29.00;14.40;;;-0.10;99.90;;;;;;5012015;28;20443;-61
2021/01/03 06:27:55;;;;;;;38.00;15.40;;;-0.10;99.90;;;;;;5019065;28;20447;-61
2021/01/03 06:30:23;;;;;;;23.37;11.23;;;-0.10;99.90;;;;;;5005607;28;20437;-61
2021/01/03 06:32:51;;;;;;;20.83;11.57;;;-0.20;99.90;;;;;;5011827;28;20460;-61
2021/01/03 06:35:29;;;;;;;22.37;11.60;;;-0.20;99.90;;;;;;5015387;28;20443;-61
2021/01/03 06:38:22;;;;;;;21.87;11.27;;;-0.20;99.90;;;;;;5005218;28;20438;-61
2021/01/03 06:41:18;;;;;;;23.93;11.63;;;-0.20;99.90;;;;;;4999954;28;20509;-61
2021/01/03 06:44:13;;;;;;;26.30;13.30;;;-0.20;99.90;;;;;;4995418;28;20445;-60
2021/01/03 06:46:57;;;;;;;25.07;11.47;;;-0.30;99.90;;;;;;5009333;28;20449;-61
2021/01/03 06:49:46;;;;;;;22.30;11.40;;;-0.30;99.90;;;;;;4995454;28;20448;-60
2021/01/03 06:52:12;;;;;;;23.33;11.90;;;-0.30;99.90;;;;;;5004088;28;20572;-61
2021/01/03 06:54:53;;;;;;;19.70;11.27;;;-0.20;99.90;;;;;;5002910;28;20437;-61
2021/01/03 06:57:42;;;;;;;22.00;11.63;;;-0.20;99.90;;;;;;5002322;28;20217;-61
2021/01/03 07:00:24;;;;;;;20.33;11.00;;;-0.20;99.90;;;;;;5004394;28;20451;-60
2021/01/03 07:03:00;;;;;;;25.23;11.23;;;-0.20;99.90;;;;;;5008771;28;20507;-61
2021/01/03 07:05:25;;;;;;;21.70;11.00;;;-0.20;99.90;;;;;;4993875;28;20789;-60
2021/01/03 07:08:08;;;;;;;24.90;11.10;;;-0.20;99.90;;;;;;5002604;28;20446;-60
2021/01/03 07:10:44;;;;;;;24.80;11.63;;;-0.20;99.90;;;;;;5008474;28;20174;-68
2021/01/03 07:13:28;;;;;;;23.20;11.53;;;-0.20;99.90;;;;;;5009355;28;20946;-61
2021/01/03 07:15:58;;;;;;;22.93;11.83;;;-0.20;99.90;;;;;;5008274;28;20465;-60
2021/01/03 07:18:38;;;;;;;25.83;12.03;;;-0.20;99.90;;;;;;5008963;28;20441;-61
2021/01/03 07:21:03;;;;;;;25.40;11.73;;;-0.20;99.90;;;;;;5009297;28;20453;-59
2021/01/03 07:23:37;;;;;;;26.33;12.30;;;-0.20;99.90;;;;;;5006279;28;20475;-61
2021/01/03 07:26:07;;;;;;;21.90;11.40;;;-0.30;99.90;;;;;;5005926;28;20210;-60
2021/01/03 07:28:35;;;;;;;20.53;11.20;;;-0.30;99.90;;;;;;5005085;28;20475;-61
2021/01/03 07:31:07;;;;;;;20.93;11.10;;;-0.30;99.90;;;;;;5008931;28;20446;-60
2021/01/03 07:34:07;;;;;;;23.07;12.77;;;-0.30;99.90;;;;;;5002271;28;20918;-61
2021/01/03 07:36:46;;;;;;;22.80;12.10;;;-0.30;99.90;;;;;;5008661;28;20456;-62
2021/01/03 07:39:23;;;;;;;20.83;11.23;;;-0.30;99.90;;;;;;5007307;28;20435;-61
2021/01/03 07:42:09;;;;;;;26.57;11.90;;;-0.30;99.90;;;;;;5005981;28;20454;-60
2021/01/03 07:44:35;;;;;;;24.90;12.30;;;-0.30;99.90;;;;;;5004904;28;20432;-60
2021/01/03 07:47:02;;;;;;;25.30;12.03;;;-0.20;99.90;;;;;;5008468;28;20497;-60
2021/01/03 07:49:36;;;;;;;28.60;13.07;;;-0.20;99.90;;;;;;5006850;28;20449;-60
2021/01/03 07:52:16;;;;;;;24.37;11.80;;;-0.20;99.90;;;;;;5004974;28;20448;-60
2021/01/03 07:54:53;;;;;;;21.63;11.10;;;-0.20;99.90;;;;;;5009665;28;20432;-59
2021/01/03 07:57:21;;;;;;;24.47;12.33;;;-0.20;99.90;;;;;;5006396;28;20499;-60
2021/01/03 07:59:48;;;;;;;22.93;12.30;;;-0.10;99.90;;;;;;5004204;28;20876;-58
2021/01/03 08:02:16;;;;;;;22.00;12.57;;;-0.10;99.90;;;;;;4998548;28;21005;-60
2021/01/03 08:04:41;;;;;;;20.40;10.67;;;-0.10;99.90;;;;;;5008479;28;20460;-59
2021/01/03 08:07:13;;;;;;;20.43;11.20;;;-0.10;99.90;;;;;;5007077;28;20437;-60
2021/01/03 08:09:39;;;;;;;22.80;12.07;;;-0.10;99.90;;;;;;4998556;28;20249;-58
2021/01/03 08:12:08;;;;;;;21.63;11.50;;;0.00;99.90;;;;;;5020174;28;20803;-60
2021/01/03 08:14:37;;;;;;;22.07;11.60;;;0.00;99.90;;;;;;5000159;28;20441;-61
2021/01/03 08:17:03;;;;;;;21.50;11.37;;;0.00;99.90;;;;;;5007394;28;20896;-58
2021/01/03 08:19:30;;;;;;;21.27;10.83;;;0.00;99.90;;;;;;4995904;28;20437;-59
2021/01/03 08:21:59;;;;;;;25.80;11.77;;;0.00;99.90;;;;;;5010094;28;20459;-60
2021/01/03 08:24:28;;;;;;;23.27;11.77;;;0.10;99.90;;;;;;5003318;28;20784;-59
2021/01/03 08:27:14;;;;;;;22.97;11.37;;;0.10;99.90;;;;;;5000173;28;20465;-58
2021/01/03 08:29:45;;;;;;;21.57;10.60;;;0.10;99.90;;;;;;5007547;28;20865;-60
2021/01/03 08:32:18;;;;;;;21.43;11.50;;;0.10;99.90;;;;;;5009868;28;20445;-60
2021/01/03 08:34:43;;;;;;;21.77;11.30;;;0.10;99.90;;;;;;5009537;28;20430;-60
2021/01/03 08:37:34;;;;;;;25.67;12.37;;;0.10;99.90;;;;;;5025425;28;20468;-64
2021/01/03 08:40:12;;;;;;;21.40;10.90;;;0.20;99.90;;;;;;5021872;28;20182;-60
2021/01/03 08:42:42;;;;;;;20.77;10.13;;;0.20;99.90;;;;;;5012678;28;20533;-60
2021/01/03 08:45:16;;;;;;;27.83;12.37;;;0.30;99.90;;;;;;5008328;28;20435;-60
2021/01/03 08:47:41;;;;;;;23.87;11.13;;;0.30;99.60;;;;;;5018915;28;20899;-61
2021/01/03 08:50:29;;;;;;;19.47;10.20;;;0.30;99.20;;;;;;5014528;28;20448;-59
2021/01/03 08:52:55;;;;;;;22.70;11.20;;;0.30;99.10;;;;;;5019186;28;20193;-61
2021/01/03 08:55:21;;;;;;;22.90;10.83;;;0.20;99.40;;;;;;5021487;28;20438;-59
2021/01/03 08:58:03;;;;;;;23.80;11.40;;;0.20;99.40;;;;;;5007090;28;20194;-59
2021/01/03 09:00:35;;;;;;;23.20;12.33;;;0.30;99.50;;;;;;5007018;28;20795;-62
2021/01/03 09:03:04;;;;;;;22.50;10.70;;;0.30;99.60;;;;;;5004843;28;20495;-60
2021/01/03 09:05:33;;;;;;;23.57;11.60;;;0.40;99.60;;;;;;5004890;28;20938;-59
2021/01/03 09:08:01;;;;;;;27.70;11.27;;;0.40;99.60;;;;;;5016922;28;20469;-63
2021/01/03 09:10:29;;;;;;;23.60;11.57;;;0.40;99.40;;;;;;5014104;28;20433;-61
2021/01/03 09:13:13;;;;;;;23.97;11.80;;;0.50;99.40;;;;;;5010534;28;20522;-60
2021/01/03 09:15:43;;;;;;;21.23;10.37;;;0.50;99.30;;;;;;5009969;28;21272;-60
2021/01/03 09:18:30;;;;;;;23.60;11.90;;;0.60;99.30;;;;;;5011784;28;20437;-59
2021/01/03 09:21:11;;;;;;;24.53;11.40;;;0.60;98.90;;;;;;5002343;28;20443;-60
2021/01/03 09:23:41;;;;;;;29.60;12.33;;;0.60;99.00;;;;;;5007837;28;20480;-59
2021/01/03 09:26:08;;;;;;;30.33;12.43;;;0.70;98.90;;;;;;5005588;28;20436;-58
2021/01/03 09:28:41;;;;;;;23.53;11.10;;;0.70;98.80;;;;;;5003259;28;20465;-61
2021/01/03 09:31:18;;;;;;;26.13;12.67;;;0.70;98.80;;;;;;5008632;28;20467;-60
2021/01/03 09:33:53;;;;;;;26.70;12.30;;;0.70;98.90;;;;;;4998408;28;20441;-61
2021/01/03 09:36:40;;;;;;;19.43;10.83;;;0.70;98.80;;;;;;5009970;28;20455;-59
2021/01/03 09:39:21;;;;;;;23.33;12.53;;;0.70;98.80;;;;;;5001031;28;20475;-63
2021/01/03 09:42:06;;;;;;;29.30;13.17;;;0.70;98.80;;;;;;5002763;28;20507;-60
2021/01/03 09:45:13;;;;;;;22.27;11.63;;;0.70;98.90;;;;;;5006113;28;20432;-61
2021/01/03 09:47:43;;;;;;;24.37;12.07;;;0.70;98.90;;;;;;4977310;28;20436;-61
2021/01/03 09:50:41;;;;;;;26.10;13.00;;;0.70;99.00;;;;;;5014842;28;20449;-61
2021/01/03 09:53:20;;;;;;;32.07;13.53;;;0.70;98.80;;;;;;5006519;28;21192;-62
2021/01/03 09:56:17;;;;;;;24.20;11.97;;;0.70;98.60;;;;;;5031840;28;20468;-63
2021/01/03 09:58:46;;;;;;;22.03;10.53;;;0.60;98.40;;;;;;4982753;28;20429;-61
2021/01/03 10:01:30;;;;;;;27.43;12.47;;;0.60;98.70;;;;;;5003973;28;20860;-60
2021/01/03 10:03:56;;;;;;;25.63;13.10;;;0.60;98.90;;;;;;5002621;28;20442;-60
2021/01/03 10:06:33;;;;;;;22.73;11.03;;;0.60;98.90;;;;;;4998930;28;21205;-62
2021/01/03 10:09:18;;;;;;;23.90;12.10;;;0.60;98.70;;;;;;5001986;28;20986;-62
2021/01/03 10:11:45;;;;;;;25.17;11.30;;;0.60;98.60;;;;;;4998134;28;20450;-59
2021/01/03 10:14:34;;;;;;;21.87;11.10;;;0.60;98.50;;;;;;5003262;28;20424;-60
2021/01/03 10:17:21;;;;;;;24.27;12.20;;;0.60;98.50;;;;;;5003965;28;20548;-59
2021/01/03 10:19:47;;;;;;;24.10;11.60;;;0.50;98.70;;;;;;5004452;28;20433;-61
2021/01/03 10:22:43;;;;;;;27.33;13.03;;;0.60;98.80;;;;;;5003221;28;20520;-61
2021/01/03 10:25:12;;;;;;;32.93;12.83;;;0.60;98.70;;;;;;4994051;28;20435;-60
2021/01/03 10:28:06;;;;;;;29.43;13.07;;;0.70;98.90;;;;;;5000496;28;20425;-61
2021/01/03 10:30:33;;;;;;;26.47;12.70;;;0.70;98.60;;;;;;5001521;28;20434;-60
2021/01/03 10:32:59;;;;;;;28.53;13.73;;;0.70;98.70;;;;;;5005678;28;20464;-61
2021/01/03 10:35:25;;;;;;;26.50;13.30;;;0.80;98.60;;;;;;5004627;28;20950;-62
2021/01/03 10:37:51;;;;;;;23.80;12.33;;;0.90;98.50;;;;;;4995256;28;22227;-61
2021/01/03 10:40:18;;;;;;;27.70;13.20;;;0.90;98.30;;;;;;5001084;28;20894;-61
2021/01/03 10:42:43;;;;;;;31.23;13.00;;;1.00;98.40;;;;;;4997921;28;20251;-60
2021/01/03 10:45:10;;;;;;;25.23;14.23;;;1.00;98.20;;;;;;4979707;28;20440;-61
2021/01/03 10:47:36;;;;;;;29.77;14.00;;;1.10;97.90;;;;;;5003055;28;20194;-60
2021/01/03 10:50:03;;;;;;;31.23;14.67;;;1.10;97.60;;;;;;4999246;28;20444;-60
2021/01/03 10:52:29;;;;;;;27.63;13.70;;;1.10;97.50;;;;;;5004115;28;20843;-60
2021/01/03 10:54:55;;;;;;;29.80;13.10;;;1.10;97.40;;;;;;4992642;28;20453;-60
2021/01/03 10:57:20;;;;;;;22.23;12.17;;;1.00;97.70;;;;;;5009574;28;20212;-58
2021/01/03 10:59:46;;;;;;;27.17;13.40;;;1.10;97.80;;;;;;5009923;28;20178;-61
2021/01/03 11:02:11;;;;;;;24.73;12.13;;;1.10;97.90;;;;;;5001409;28;20558;-59
2021/01/03 11:04:37;;;;;;;25.03;12.70;;;1.20;97.70;;;;;;5021517;22;21234;-63
2021/01/03 11:07:03;;;;;;;26.53;12.60;;;1.20;97.50;;;;;;5021743;28;20320;-62
2021/01/03 11:09:31;;;;;;;19.23;10.90;;;1.20;97.20;;;;;;5019414;28;20189;-64
2021/01/03 11:12:11;;;;;;;26.37;12.60;;;1.20;96.90;;;;;;5019848;28;20185;-63
2021/01/03 11:14:37;;;;;;;24.10;12.63;;;1.20;96.90;;;;;;5021345;28;20551;-64
2021/01/03 11:17:05;;;;;;;27.50;12.80;;;1.30;96.60;;;;;;5025040;28;20464;-60
2021/01/03 11:19:30;;;;;;;29.57;12.80;;;1.30;96.70;;;;;;5020448;28;20447;-66
2021/01/03 11:22:01;;;;;;;22.33;11.87;;;1.30;96.90;;;;;;5023776;28;20420;-65
2021/01/03 11:24:27;;;;;;;28.90;13.10;;;1.40;96.90;;;;;;5023437;28;20606;-63
2021/01/03 11:26:56;;;;;;;27.00;11.43;;;1.50;96.80;;;;;;5017516;28;20489;-67
2021/01/03 11:29:24;;;;;;;16.00;8.80;;;1.50;96.20;;;;;;5023128;28;20176;-68
2021/01/03 11:31:56;;;;;;;19.73;10.17;;;1.60;94.50;;;;;;5020132;28;21468;-66
2021/01/03 11:34:32;;;;;;;20.30;10.47;;;1.60;95.10;;;;;;5018185;28;22697;-62
2021/01/03 11:37:08;;;;;;;17.93;9.93;;;1.60;95.20;;;;;;5018595;28;20463;-63
2021/01/03 11:39:35;;;;;;;16.63;9.13;;;1.70;95.10;;;;;;5017179;28;20542;-65
2021/01/03 11:42:03;;;;;;;22.93;12.13;;;1.70;94.70;;;;;;5021598;28;20463;-63
2021/01/03 11:44:31;;;;;;;24.60;13.50;;;1.80;94.90;;;;;;5018929;28;20451;-69
2021/01/03 11:47:07;;;;;;;25.00;12.00;;;1.80;94.70;;;;;;5013486;28;20432;-61
2021/01/03 11:49:33;;;;;;;22.30;10.70;;;1.80;95.10;;;;;;5019007;28;20447;-65
2021/01/03 11:52:04;;;;;;;20.70;12.10;;;1.90;95.30;;;;;;5019742;28;20448;-64
2021/01/03 11:54:29;;;;;;;20.60;11.00;;;1.90;94.80;;;;;;5014717;28;20455;-61
2021/01/03 11:56:56;;;;;;;22.30;11.30;;;1.90;94.00;;;;;;5019233;28;20496;-64
2021/01/03 11:59:23;;;;;;;20.93;10.50;;;1.80;94.10;;;;;;5016651;28;20363;-63
2021/01/03 12:01:49;;;;;;;21.80;11.20;;;1.80;94.30;;;;;;5014378;28;20444;-62
2021/01/03 12:04:15;;;;;;;20.00;10.10;;;1.90;94.90;;;;;;5014089;28;20456;-62
2021/01/03 12:06:41;;;;;;;17.77;10.60;;;1.90;94.70;;;;;;5014016;28;20457;-63
2021/01/03 12:09:06;;;;;;;19.00;9.97;;;2.00;94.60;;;;;;5011487;28;20181;-62
2021/01/03 12:11:32;;;;;;;18.20;10.10;;;2.00;94.20;;;;;;5012620;28;20702;-62
2021/01/03 12:14:01;;;;;;;19.20;9.70;;;2.00;94.30;;;;;;5028631;28;20912;-63
2021/01/03 12:16:31;;;;;;;18.07;10.20;;;2.00;94.20;;;;;;5012080;28;20199;-64
2021/01/03 12:18:57;;;;;;;23.50;12.03;;;2.00;93.90;;;;;;5014464;28;20923;-64
2021/01/03 12:21:31;;;;;;;20.20;11.10;;;1.90;93.80;;;;;;5012739;28;20495;-65
2021/01/03 12:23:58;;;;;;;19.50;10.47;;;1.90;94.10;;;;;;5018974;28;22104;-65
2021/01/03 12:26:33;;;;;;;18.93;10.03;;;1.90;94.10;;;;;;5017425;28;20535;-65
2021/01/03 12:28:59;;;;;;;17.43;9.47;;;1.90;94.20;;;;;;5010478;28;20798;-66
2021/01/03 12:31:35;;;;;;;20.80;11.27;;;1.90;94.30;;;;;;5016585;28;20438;-66
2021/01/03 12:34:01;;;;;;;22.10;12.53;;;1.80;94.10;;;;;;5014257;28;21020;-65
2021/01/03 12:36:26;;;;;;;22.50;11.70;;;1.80;94.20;;;;;;5017914;28;20485;-66
2021/01/03 12:38:52;;;;;;;21.43;11.30;;;1.80;94.20;;;;;;5020232;28;20201;-65
2021/01/03 12:41:20;;;;;;;20.27;10.40;;;1.80;94.30;;;;;;5014256;28;20564;-66
2021/01/03 12:43:47;;;;;;;17.73;9.73;;;1.80;94.30;;;;;;5015008;28;20616;-64
2021/01/03 12:46:13;;;;;;;19.17;11.27;;;1.70;93.80;;;;;;5014127;28;20495;-62
2021/01/03 12:48:41;;;;;;;21.90;11.10;;;1.70;93.90;;;;;;5019854;28;20447;-65
2021/01/03 12:51:07;;;;;;;18.10;9.77;;;1.70;94.40;;;;;;5025430;28;20441;-62
2021/01/03 12:53:35;;;;;;;17.40;10.00;;;1.60;94.60;;;;;;5022491;28;21309;-64